Time;durP1;ratioP1;P1;durP2;ratioP2;P2;SDS_P1;SDS_P2;PMS_P1;PMS_P2;Temp;Humidity;BMP_temperature;BMP_pressure;BME280_temperature;BME280_humidity;BME280_pressure;Samples;Min_cycle;Max_cycle;Signal;HPM_P1;HPM_P2
2023/07/01 00:01:26;;;;;;;6.65;6.10;;;20.90;58.00;;;;;;20491;6792;308998;-75
2023/07/01 00:04:02;;;;;;;6.63;6.03;;;20.90;57.90;;;;;;20439;6809;309780;-75
2023/07/01 00:06:41;;;;;;;6.50;6.00;;;21.20;57.10;;;;;;20418;6812;309282;-74
2023/07/01 00:09:13;;;;;;;6.80;6.30;;;21.30;56.60;;;;;;20301;6801;345338;-75
2023/07/01 00:11:49;;;;;;;6.77;6.27;;;21.50;55.80;;;;;;20442;6803;280433;-75
2023/07/01 00:14:26;;;;;;;5.50;5.13;;;21.50;55.80;;;;;;20674;6812;117860;-74
2023/07/01 00:17:02;;;;;;;5.90;5.40;;;21.20;56.50;;;;;;20695;6794;113706;-75
2023/07/01 00:19:37;;;;;;;5.50;5.03;;;20.80;57.40;;;;;;20761;6779;117522;-75
2023/07/01 00:22:12;;;;;;;6.00;5.53;;;20.50;58.30;;;;;;20415;6809;312180;-76
2023/07/01 00:24:48;;;;;;;6.05;5.62;;;20.60;57.90;;;;;;20451;6805;337798;-74
2023/07/01 00:27:23;;;;;;;4.93;4.63;;;20.90;57.20;;;;;;20576;6816;117659;-75
2023/07/01 00:29:59;;;;;;;5.73;5.33;;;20.70;57.40;;;;;;20382;6812;284076;-75
2023/07/01 00:32:35;;;;;;;6.83;5.10;;;20.60;57.50;;;;;;20617;6815;119673;-75
2023/07/01 00:35:11;;;;;;;5.87;4.60;;;20.60;57.50;;;;;;20601;6816;117383;-75
2023/07/01 00:37:46;;;;;;;5.47;4.97;;;20.30;58.20;;;;;;20582;6797;119403;-74
2023/07/01 00:40:23;;;;;;;6.33;5.47;;;20.20;58.50;;;;;;20385;6812;286616;-74
2023/07/01 00:42:58;;;;;;;6.10;5.60;;;20.20;58.20;;;;;;20369;6827;310499;-76
2023/07/01 00:45:36;;;;;;;6.03;5.47;;;20.80;56.70;;;;;;20385;6810;282314;-74
2023/07/01 00:48:12;;;;;;;5.90;5.40;;;21.00;56.20;;;;;;20250;6809;281654;-75
2023/07/01 00:50:48;;;;;;;6.30;5.70;;;21.00;56.20;;;;;;20421;6809;339848;-76
2023/07/01 00:53:24;;;;;;;5.50;5.10;;;21.20;55.90;;;;;;20637;6805;119016;-75
2023/07/01 00:55:59;;;;;;;5.03;4.53;;;20.80;56.40;;;;;;20644;6824;117367;-74
2023/07/01 00:58:35;;;;;;;6.10;5.50;;;20.40;57.20;;;;;;20293;6803;316015;-75
2023/07/01 01:01:10;;;;;;;5.50;5.10;;;20.40;57.30;;;;;;20461;6803;309481;-75
2023/07/01 01:03:46;;;;;;;4.87;4.37;;;20.60;56.50;;;;;;20665;6801;119935;-77
2023/07/01 01:06:25;;;;;;;6.10;4.50;;;20.40;56.90;;;;;;20633;6857;117777;-75
2023/07/01 01:09:10;;;;;;;4.10;3.70;;;20.10;57.70;;;;;;20571;6786;117827;-75
2023/07/01 01:11:43;;;;;;;5.40;4.97;;;19.80;58.50;;;;;;20470;6797;277978;-75
2023/07/01 01:14:19;;;;;;;5.43;5.00;;;19.90;58.10;;;;;;20467;6792;305295;-75
2023/07/01 01:16:55;;;;;;;5.10;4.60;;;20.50;56.60;;;;;;20477;6793;293671;-75
2023/07/01 01:19:40;;;;;;;5.40;5.00;;;20.50;56.60;;;;;;20312;6854;280651;-75
2023/07/01 01:22:17;;;;;;;4.90;4.50;;;20.80;55.30;;;;;;20402;6816;284346;-77
2023/07/01 01:24:56;;;;;;;5.97;4.57;;;20.70;55.20;;;;;;20436;6812;283004;-75
2023/07/01 01:27:35;;;;;;;4.87;4.57;;;20.90;54.90;;;;;;20392;6812;285077;-75
2023/07/01 01:30:11;;;;;;;5.22;4.72;;;20.80;54.70;;;;;;20452;6797;337939;-74
2023/07/01 01:32:47;;;;;;;5.00;4.60;;;20.90;54.80;;;;;;20471;6798;283152;-76
2023/07/01 01:35:22;;;;;;;4.82;4.47;;;21.00;54.40;;;;;;20439;6808;307797;-75
2023/07/01 01:38:07;;;;;;;5.17;4.77;;;21.00;54.20;;;;;;20385;6802;310599;-74
2023/07/01 01:40:46;;;;;;;4.73;4.10;;;21.00;54.10;;;;;;20683;6798;117779;-74
2023/07/01 01:43:21;;;;;;;4.90;4.40;;;20.50;54.80;;;;;;20666;6802;117393;-73
2023/07/01 01:45:57;;;;;;;5.10;4.60;;;20.10;56.00;;;;;;20467;6799;282830;-75
2023/07/01 01:48:33;;;;;;;5.00;4.60;;;20.10;56.40;;;;;;20290;6807;310703;-73
2023/07/01 01:51:08;;;;;;;5.00;3.93;;;20.30;56.60;;;;;;20717;6789;123930;-74
2023/07/01 01:53:44;;;;;;;4.27;3.97;;;20.20;57.00;;;;;;20713;6789;117281;-75
2023/07/01 01:56:19;;;;;;;4.60;4.30;;;19.90;57.70;;;;;;20688;6790;117279;-74
2023/07/01 01:58:55;;;;;;;4.00;3.70;;;19.60;58.30;;;;;;20477;6816;117919;-75
2023/07/01 02:01:30;;;;;;;5.27;4.87;;;19.50;59.00;;;;;;20523;6782;278052;-74
2023/07/01 02:04:07;;;;;;;5.17;4.87;;;20.10;57.70;;;;;;20477;6797;311937;-75
2023/07/01 02:06:45;;;;;;;5.10;4.67;;;20.10;57.40;;;;;;20427;6812;284405;-73
2023/07/01 02:09:18;;;;;;;4.90;4.53;;;20.30;56.40;;;;;;20280;6797;285019;-75
2023/07/01 02:11:53;;;;;;;5.47;4.37;;;20.50;56.00;;;;;;20639;6813;117945;-74
2023/07/01 02:14:29;;;;;;;5.62;4.50;;;20.30;56.60;;;;;;20455;6801;278631;-74
2023/07/01 02:17:05;;;;;;;5.27;4.20;;;20.30;56.40;;;;;;20622;6812;117876;-75
2023/07/01 02:19:40;;;;;;;5.63;3.90;;;20.10;56.80;;;;;;20687;6797;117264;-75
2023/07/01 02:22:16;;;;;;;4.37;4.07;;;19.80;57.60;;;;;;20698;6786;117815;-74
2023/07/01 02:24:51;;;;;;;5.20;4.70;;;19.50;58.30;;;;;;20405;6822;279435;-74
2023/07/01 02:27:30;;;;;;;4.78;4.37;;;19.70;57.90;;;;;;20432;6803;314061;-75
2023/07/01 02:30:03;;;;;;;4.30;4.10;;;20.10;57.10;;;;;;20659;6803;121425;-74
2023/07/01 02:32:38;;;;;;;4.43;3.90;;;20.00;57.20;;;;;;20648;6803;122822;-74
2023/07/01 02:35:15;;;;;;;5.23;4.73;;;19.80;58.00;;;;;;20453;6803;292569;-73
2023/07/01 02:37:51;;;;;;;4.43;3.67;;;19.90;57.20;;;;;;20610;6803;117719;-75
2023/07/01 02:40:27;;;;;;;4.13;3.93;;;19.80;57.40;;;;;;20663;6800;127630;-75
2023/07/01 02:43:02;;;;;;;3.30;3.13;;;19.60;58.00;;;;;;20641;6810;117906;-73
2023/07/01 02:45:38;;;;;;;5.70;3.87;;;19.40;58.50;;;;;;20661;6807;117300;-75
2023/07/01 02:48:18;;;;;;;4.70;4.00;;;19.20;59.10;;;;;;20573;6807;117578;-77
2023/07/01 02:50:51;;;;;;;3.87;3.67;;;19.10;59.00;;;;;;20621;6822;117862;-76
2023/07/01 02:53:28;;;;;;;4.90;4.50;;;19.30;58.40;;;;;;20404;6822;313702;-75
2023/07/01 02:56:05;;;;;;;4.87;4.40;;;19.30;58.20;;;;;;20618;6822;117306;-77
2023/07/01 02:58:41;;;;;;;3.80;3.60;;;19.40;58.30;;;;;;20478;6822;118194;-75
2023/07/01 03:01:19;;;;;;;4.07;3.67;;;19.20;58.70;;;;;;20639;6812;117340;-75
2023/07/01 03:03:52;;;;;;;5.30;3.67;;;19.10;59.20;;;;;;20656;6807;117167;-75
2023/07/01 03:06:29;;;;;;;4.60;4.20;;;19.00;59.50;;;;;;20446;6801;401146;-74
2023/07/01 03:09:07;;;;;;;4.80;4.40;;;19.20;58.50;;;;;;20283;6812;310273;-74
2023/07/01 03:11:40;;;;;;;4.50;4.20;;;19.60;57.50;;;;;;20469;6797;312787;-75
2023/07/01 03:14:17;;;;;;;4.63;4.23;;;20.20;56.10;;;;;;20429;6797;280687;-75
2023/07/01 03:16:53;;;;;;;3.93;3.63;;;20.20;56.10;;;;;;20681;6797;117710;-75
2023/07/01 03:19:28;;;;;;;3.93;3.50;;;20.00;56.60;;;;;;20464;6868;118987;-75
2023/07/01 03:22:04;;;;;;;3.97;3.70;;;19.70;57.50;;;;;;20680;6797;117763;-73
2023/07/01 03:24:40;;;;;;;4.40;4.10;;;19.50;57.60;;;;;;20419;6803;313715;-74
2023/07/01 03:27:17;;;;;;;5.23;3.77;;;19.50;57.50;;;;;;20689;6789;117286;-75
2023/07/01 03:29:55;;;;;;;6.30;3.80;;;19.50;57.70;;;;;;20664;6804;117995;-74
2023/07/01 03:32:29;;;;;;;3.63;3.43;;;19.30;58.20;;;;;;20584;6822;117601;-74
2023/07/01 03:35:06;;;;;;;4.40;4.10;;;19.40;58.30;;;;;;20416;6818;309150;-81
2023/07/01 03:37:42;;;;;;;6.67;3.60;;;19.40;58.20;;;;;;20581;6815;117434;-75
2023/07/01 03:40:18;;;;;;;4.68;4.28;;;19.40;58.30;;;;;;20460;6797;308342;-74
2023/07/01 03:42:54;;;;;;;4.30;4.00;;;19.60;57.50;;;;;;20478;6796;278494;-75
2023/07/01 03:45:29;;;;;;;4.80;4.40;;;20.00;56.80;;;;;;20465;6800;339586;-74
2023/07/01 03:48:05;;;;;;;4.40;4.00;;;20.20;56.00;;;;;;20564;6797;117305;-75
2023/07/01 03:50:41;;;;;;;4.40;4.00;;;20.10;56.50;;;;;;20605;6797;120429;-77
2023/07/01 03:53:16;;;;;;;4.40;3.67;;;19.80;57.20;;;;;;20641;6803;119035;-75
2023/07/01 03:55:52;;;;;;;4.83;4.43;;;19.50;57.80;;;;;;20360;6803;283000;-73
2023/07/01 03:58:27;;;;;;;5.00;4.60;;;19.70;57.20;;;;;;20270;6797;324917;-75
2023/07/01 04:01:05;;;;;;;5.00;4.60;;;20.10;56.70;;;;;;20627;6797;117383;-75
2023/07/01 04:03:40;;;;;;;4.13;3.83;;;20.00;56.80;;;;;;20637;6797;118356;-75
2023/07/01 04:06:15;;;;;;;4.00;3.70;;;19.80;57.60;;;;;;20632;6797;118371;-75
2023/07/01 04:08:54;;;;;;;4.63;3.50;;;19.60;58.20;;;;;;20485;6803;117933;-76
2023/07/01 04:11:28;;;;;;;3.87;3.67;;;19.50;58.70;;;;;;20666;6803;117324;-74
2023/07/01 04:14:07;;;;;;;3.90;3.60;;;19.40;58.90;;;;;;20725;6788;120453;-75
2023/07/01 04:16:46;;;;;;;4.07;3.80;;;19.30;59.20;;;;;;20676;6797;118631;-75
2023/07/01 04:19:23;;;;;;;4.37;4.07;;;19.30;59.40;;;;;;20478;6797;117852;-75
2023/07/01 04:21:58;;;;;;;3.83;3.57;;;19.20;59.50;;;;;;20685;6797;118226;-75
2023/07/01 04:24:34;;;;;;;5.27;4.47;;;19.20;59.70;;;;;;20427;6803;309064;-75
2023/07/01 04:27:13;;;;;;;4.65;4.25;;;20.00;57.70;;;;;;20469;6797;330808;-75
2023/07/01 04:29:46;;;;;;;4.80;4.27;;;20.00;57.70;;;;;;20691;6797;119045;-75
2023/07/01 04:32:21;;;;;;;4.27;3.87;;;20.00;57.70;;;;;;20639;6803;118468;-75
2023/07/01 04:35:00;;;;;;;4.60;4.20;;;19.80;58.20;;;;;;20675;6803;117532;-75
2023/07/01 04:37:35;;;;;;;4.23;4.00;;;19.70;58.80;;;;;;20624;6797;117780;-77
2023/07/01 04:40:12;;;;;;;5.00;4.60;;;19.80;58.40;;;;;;20458;6797;308470;-77
2023/07/01 04:42:51;;;;;;;5.07;4.43;;;20.20;56.80;;;;;;20554;6770;278111;-75
2023/07/01 04:45:24;;;;;;;4.70;4.30;;;20.20;56.70;;;;;;20561;6770;282504;-75
2023/07/01 04:48:00;;;;;;;4.53;4.23;;;20.50;55.80;;;;;;20482;6770;281521;-73
2023/07/01 04:50:35;;;;;;;4.82;4.43;;;20.80;55.20;;;;;;20556;6770;341383;-75
2023/07/01 04:53:11;;;;;;;4.00;3.70;;;20.90;54.90;;;;;;20762;6770;117577;-73
2023/07/01 04:55:50;;;;;;;6.23;3.80;;;20.70;55.50;;;;;;20755;6770;117683;-77
2023/07/01 04:58:24;;;;;;;4.23;3.90;;;20.30;56.20;;;;;;20615;6770;123734;-75
2023/07/01 05:01:00;;;;;;;4.90;4.40;;;20.10;57.00;;;;;;20560;6770;284752;-75
2023/07/01 05:03:58;;;;;;;4.50;4.10;;;20.30;56.40;;;;;;20548;6770;310538;-75
2023/07/01 05:06:35;;;;;;;4.70;4.40;;;20.60;55.50;;;;;;20422;6803;338257;-75
2023/07/01 05:09:10;;;;;;;4.70;3.70;;;20.70;55.30;;;;;;20514;6803;119303;-75
2023/07/01 05:11:46;;;;;;;4.13;3.93;;;20.70;55.20;;;;;;20472;6797;308830;-76
2023/07/01 05:14:25;;;;;;;4.23;3.93;;;20.80;55.00;;;;;;20665;6797;123102;-75
2023/07/01 05:16:57;;;;;;;6.27;4.27;;;20.70;55.50;;;;;;20621;6803;118162;-77
2023/07/01 05:19:36;;;;;;;4.60;4.20;;;20.40;56.00;;;;;;20273;6860;301773;-75
2023/07/01 05:22:11;;;;;;;4.70;4.30;;;20.60;56.20;;;;;;20480;6797;308522;-81
2023/07/01 05:24:48;;;;;;;4.07;3.70;;;20.90;55.10;;;;;;20685;6797;117528;-80
2023/07/01 05:27:24;;;;;;;4.03;3.70;;;20.90;55.50;;;;;;20660;6797;117818;-80
2023/07/01 05:29:59;;;;;;;4.10;3.73;;;20.60;55.90;;;;;;20675;6797;118355;-78
2023/07/01 05:32:35;;;;;;;5.67;4.03;;;20.40;56.40;;;;;;20632;6803;117450;-78
2023/07/01 05:35:11;;;;;;;4.87;4.47;;;20.30;56.90;;;;;;20454;6797;279773;-79
2023/07/01 05:37:47;;;;;;;4.95;4.45;;;20.50;56.50;;;;;;20384;6797;315276;-79
2023/07/01 05:40:24;;;;;;;4.33;3.93;;;21.00;55.60;;;;;;20654;6797;133180;-80
2023/07/01 05:42:59;;;;;;;3.90;3.70;;;21.00;55.70;;;;;;20646;6803;120288;-77
2023/07/01 05:45:35;;;;;;;8.77;3.80;;;20.80;56.10;;;;;;20657;6803;117977;-77
2023/07/01 05:48:10;;;;;;;4.20;3.80;;;20.60;56.60;;;;;;20588;6797;117669;-78
2023/07/01 05:50:47;;;;;;;4.50;4.20;;;20.80;56.60;;;;;;20469;6797;282136;-78
2023/07/01 05:53:25;;;;;;;4.70;4.30;;;20.80;56.60;;;;;;20485;6797;282723;-79
2023/07/01 05:56:01;;;;;;;4.40;4.10;;;21.20;54.90;;;;;;20696;6797;117442;-78
2023/07/01 05:58:38;;;;;;;4.10;3.80;;;21.20;55.10;;;;;;20560;6803;117872;-78
2023/07/01 06:01:13;;;;;;;4.17;3.80;;;21.10;55.80;;;;;;20678;6803;120979;-78
2023/07/01 06:03:53;;;;;;;3.70;3.50;;;21.00;56.10;;;;;;20641;6818;117593;-77
2023/07/01 06:06:27;;;;;;;4.90;4.18;;;20.90;56.30;;;;;;20462;6796;282240;-78
2023/07/01 06:09:04;;;;;;;4.10;3.70;;;21.20;54.40;;;;;;20538;6796;118967;-76
2023/07/01 06:11:39;;;;;;;5.30;3.60;;;21.40;54.80;;;;;;20666;6797;117310;-78
2023/07/01 06:14:15;;;;;;;4.45;4.07;;;21.50;55.80;;;;;;20450;6797;308101;-79
2023/07/01 06:16:50;;;;;;;4.13;3.83;;;22.20;52.60;;;;;;20686;6797;118097;-77
2023/07/01 06:19:27;;;;;;;4.33;3.93;;;23.50;50.40;;;;;;20304;6853;280473;-77
2023/07/01 06:22:03;;;;;;;4.77;4.30;;;23.50;50.40;;;;;;20423;6813;313914;-77
2023/07/01 06:24:41;;;;;;;4.47;3.60;;;24.50;48.30;;;;;;20626;6848;117787;-76
2023/07/01 06:27:17;;;;;;;4.67;3.83;;;25.00;49.50;;;;;;20465;6799;283460;-79
2023/07/01 06:29:52;;;;;;;5.40;4.07;;;25.60;46.40;;;;;;20482;6789;307557;-79
2023/07/01 06:32:25;;;;;;;3.70;3.40;;;26.30;44.60;;;;;;20706;6789;123604;-76
2023/07/01 06:35:03;;;;;;;3.10;3.00;;;26.40;45.90;;;;;;20669;6816;122882;-77
2023/07/01 06:37:36;;;;;;;5.10;3.30;;;26.40;46.60;;;;;;20657;6801;117455;-76
2023/07/01 06:40:12;;;;;;;4.40;2.90;;;26.40;46.80;;;;;;20792;6782;116345;-77
2023/07/01 06:42:47;;;;;;;3.50;3.20;;;26.50;47.00;;;;;;20768;6782;117257;-78
2023/07/01 06:45:24;;;;;;;3.60;3.30;;;26.70;47.00;;;;;;20513;6798;306623;-78
2023/07/01 06:48:01;;;;;;;4.03;3.27;;;27.70;44.40;;;;;;20601;6813;117344;-79
2023/07/01 06:50:36;;;;;;;4.10;3.12;;;27.70;43.80;;;;;;20499;6797;317134;-81
2023/07/01 06:53:11;;;;;;;3.10;2.90;;;28.10;40.20;;;;;;20703;6797;118976;-79
2023/07/01 06:55:47;;;;;;;3.50;3.20;;;28.30;41.60;;;;;;20737;6786;117844;-78
2023/07/01 06:58:23;;;;;;;3.13;2.90;;;28.20;42.30;;;;;;20345;6812;282770;-80
2023/07/01 07:00:58;;;;;;;3.30;3.10;;;28.60;38.70;;;;;;20444;6809;284334;-80
2023/07/01 07:03:37;;;;;;;3.80;3.00;;;29.20;37.00;;;;;;20654;6808;117793;-79
2023/07/01 07:06:09;;;;;;;3.17;2.83;;;29.20;38.80;;;;;;20707;6793;117259;-80
2023/07/01 07:08:45;;;;;;;5.70;3.00;;;29.00;40.00;;;;;;20528;6807;118113;-80
2023/07/01 07:11:21;;;;;;;3.73;3.03;;;29.30;38.10;;;;;;20468;6802;281535;-80
2023/07/01 07:13:57;;;;;;;3.10;2.90;;;29.30;38.10;;;;;;20653;6807;117933;-81
2023/07/01 07:16:32;;;;;;;4.17;3.30;;;29.40;39.30;;;;;;20448;6799;298452;-80
2023/07/01 07:19:09;;;;;;;3.73;2.90;;;29.70;37.50;;;;;;20367;6798;283587;-80
2023/07/01 07:21:51;;;;;;;3.87;2.80;;;30.00;35.50;;;;;;20732;6786;117257;-80
2023/07/01 07:24:21;;;;;;;2.77;2.57;;;29.70;37.00;;;;;;20639;6807;117829;-81
2023/07/01 07:27:00;;;;;;;4.50;2.60;;;29.30;37.60;;;;;;20729;6784;117510;-80
2023/07/01 07:29:35;;;;;;;3.17;2.87;;;29.00;38.60;;;;;;20431;6814;314423;-80
2023/07/01 07:32:11;;;;;;;4.73;2.70;;;29.10;36.80;;;;;;20645;6824;118099;-80
2023/07/01 07:34:48;;;;;;;2.87;2.20;;;29.00;37.50;;;;;;20647;6809;117318;-79
2023/07/01 07:37:23;;;;;;;4.40;2.57;;;28.70;37.80;;;;;;20671;6807;116434;-80
2023/07/01 07:39:59;;;;;;;3.20;2.43;;;28.40;38.10;;;;;;20725;6788;117166;-79
2023/07/01 07:42:34;;;;;;;3.03;2.77;;;28.20;38.60;;;;;;20442;6807;404992;-78
2023/07/01 07:45:12;;;;;;;3.63;2.63;;;28.60;36.60;;;;;;20429;6812;305764;-85
2023/07/01 07:47:46;;;;;;;3.70;2.60;;;28.60;36.60;;;;;;20582;6809;118021;-77
2023/07/01 07:50:22;;;;;;;2.77;2.57;;;28.50;37.20;;;;;;20441;6809;280646;-75
2023/07/01 07:52:57;;;;;;;2.83;2.63;;;28.50;36.80;;;;;;20488;6794;309324;-75
2023/07/01 07:55:36;;;;;;;6.93;2.30;;;28.60;35.70;;;;;;20706;6797;117758;-75
2023/07/01 07:58:10;;;;;;;2.60;2.50;;;28.40;36.60;;;;;;20608;6796;120620;-77
2023/07/01 08:00:46;;;;;;;2.43;2.23;;;27.90;38.70;;;;;;20632;6809;117567;-76
2023/07/01 08:03:23;;;;;;;4.27;2.60;;;27.90;37.80;;;;;;20494;6793;280908;-77
2023/07/01 08:05:59;;;;;;;2.70;2.50;;;28.10;36.50;;;;;;20483;6793;337701;-77
2023/07/01 08:08:34;;;;;;;5.10;2.30;;;28.40;35.70;;;;;;20579;6793;117854;-77
2023/07/01 08:11:10;;;;;;;3.87;2.30;;;28.40;36.20;;;;;;20464;6801;309076;-77
2023/07/01 08:13:45;;;;;;;3.67;2.50;;;28.50;35.60;;;;;;20449;6809;309658;-77
2023/07/01 08:16:21;;;;;;;3.27;2.13;;;28.80;35.60;;;;;;20674;6797;126900;-77
2023/07/01 08:18:57;;;;;;;2.17;2.07;;;28.60;37.30;;;;;;20534;6807;117782;-79
2023/07/01 08:21:35;;;;;;;2.53;2.30;;;28.60;38.00;;;;;;20458;6807;334619;-78
2023/07/01 08:24:11;;;;;;;2.33;2.23;;;28.80;35.60;;;;;;20683;6807;117047;-78
2023/07/01 08:26:44;;;;;;;2.67;2.47;;;28.80;36.20;;;;;;20424;6821;290664;-77
2023/07/01 08:29:20;;;;;;;4.57;2.43;;;29.00;34.80;;;;;;20547;6808;120859;-77
2023/07/01 08:31:55;;;;;;;2.23;2.13;;;29.00;35.20;;;;;;20666;6812;117382;-77
2023/07/01 08:34:32;;;;;;;2.30;2.10;;;28.80;35.60;;;;;;20672;6801;117277;-77
2023/07/01 08:37:08;;;;;;;3.17;2.27;;;28.40;36.10;;;;;;20681;6803;117832;-77
2023/07/01 08:39:43;;;;;;;2.50;2.30;;;28.30;36.70;;;;;;20421;6818;313110;-77
2023/07/01 08:42:20;;;;;;;3.80;2.30;;;28.50;35.20;;;;;;20356;6837;280047;-77
2023/07/01 08:44:55;;;;;;;3.50;2.47;;;28.90;34.90;;;;;;20440;6803;309419;-77
2023/07/01 08:47:31;;;;;;;2.70;2.50;;;29.30;34.80;;;;;;20426;6803;339874;-76
2023/07/01 08:50:07;;;;;;;2.40;2.20;;;29.70;33.60;;;;;;20632;6815;117862;-77
2023/07/01 08:52:42;;;;;;;3.87;2.43;;;29.70;34.40;;;;;;20449;6853;313016;-77
2023/07/01 08:55:18;;;;;;;2.83;2.58;;;29.70;33.10;;;;;;20494;6797;309181;-78
2023/07/01 08:57:53;;;;;;;2.40;2.20;;;30.00;33.60;;;;;;20583;6812;123302;-77
2023/07/01 09:00:30;;;;;;;2.03;1.93;;;29.90;34.60;;;;;;20684;6812;116350;-77
2023/07/01 09:03:08;;;;;;;2.33;2.20;;;29.60;34.80;;;;;;20656;6815;120740;-77
2023/07/01 09:05:41;;;;;;;2.30;2.10;;;29.30;35.00;;;;;;20683;6794;116761;-78
2023/07/01 09:08:17;;;;;;;3.73;2.20;;;29.00;35.50;;;;;;20574;6809;117919;-77
2023/07/01 09:11:02;;;;;;;;;;;;;;;;;;;;;
2023/07/01 09:13:31;;;;;;;2.33;2.23;;;28.70;35.30;;;;;;20670;6816;117411;-78
2023/07/01 09:16:04;;;;;;;2.93;2.10;;;28.60;34.80;;;;;;20448;6801;280086;-78
2023/07/01 09:18:43;;;;;;;3.60;2.17;;;28.50;34.40;;;;;;20520;6816;117708;-78
2023/07/01 09:21:15;;;;;;;5.03;1.97;;;28.70;34.90;;;;;;20696;6810;118985;-78
2023/07/01 09:23:51;;;;;;;4.33;2.33;;;28.70;35.70;;;;;;20715;6794;117760;-78
2023/07/01 09:26:27;;;;;;;2.50;2.30;;;28.90;36.00;;;;;;20476;6794;322897;-78
2023/07/01 09:29:09;;;;;;;2.30;2.10;;;29.20;33.10;;;;;;20538;6809;124603;-78
2023/07/01 09:31:46;;;;;;;2.90;2.23;;;29.70;32.60;;;;;;20519;6789;278034;-78
2023/07/01 09:34:22;;;;;;;3.93;2.30;;;29.70;32.60;;;;;;20475;6789;307921;-78
2023/07/01 09:36:56;;;;;;;2.13;1.83;;;29.90;30.70;;;;;;20733;6786;117372;-80
2023/07/01 09:39:33;;;;;;;2.33;2.13;;;29.90;31.90;;;;;;20294;6900;305443;-74
2023/07/01 09:42:08;;;;;;;2.90;2.43;;;29.90;31.90;;;;;;20688;6804;117234;-77
2023/07/01 09:45:05;;;;;;;3.13;2.03;;;29.80;32.80;;;;;;20567;6834;117366;-77
2023/07/01 09:47:40;;;;;;;2.33;2.13;;;29.40;33.20;;;;;;20557;6826;117353;-83
2023/07/01 09:50:26;;;;;;;2.30;2.10;;;29.30;33.10;;;;;;20666;6803;117458;-77
2023/07/01 09:52:58;;;;;;;2.40;2.20;;;29.30;33.60;;;;;;20487;6797;326234;-77
2023/07/01 09:55:34;;;;;;;3.90;2.30;;;29.60;31.40;;;;;;20690;6797;117145;-78
2023/07/01 09:58:09;;;;;;;2.67;2.17;;;29.70;32.20;;;;;;20641;6797;117716;-76
2023/07/01 10:00:46;;;;;;;2.27;2.17;;;29.70;32.70;;;;;;20618;6812;117324;-79
2023/07/01 10:03:22;;;;;;;2.87;2.27;;;30.20;31.20;;;;;;20451;6812;284038;-78
2023/07/01 10:05:57;;;;;;;2.30;2.10;;;30.20;31.80;;;;;;20429;6816;311189;-77
2023/07/01 10:08:33;;;;;;;2.37;2.17;;;30.70;29.90;;;;;;20550;6810;118190;-76
2023/07/01 10:11:15;;;;;;;1.90;1.80;;;30.70;31.10;;;;;;20657;6816;117802;-77
2023/07/01 10:13:51;;;;;;;2.87;2.17;;;30.50;31.30;;;;;;20466;6797;308550;-79
2023/07/01 10:16:27;;;;;;;2.37;2.17;;;30.80;29.90;;;;;;20513;6782;307146;-78
2023/07/01 10:19:03;;;;;;;4.67;1.90;;;30.70;29.80;;;;;;20599;6782;121840;-78
2023/07/01 10:21:40;;;;;;;2.37;2.20;;;30.70;30.80;;;;;;20695;6838;117744;-77
2023/07/01 10:24:14;;;;;;;1.93;1.73;;;30.50;31.40;;;;;;20738;6782;117295;-77
2023/07/01 10:26:53;;;;;;;4.77;1.80;;;30.30;31.80;;;;;;20698;6838;116277;-76
2023/07/01 10:29:29;;;;;;;4.63;2.10;;;30.10;32.30;;;;;;20342;6782;279741;-77
2023/07/01 10:32:13;;;;;;;2.53;2.00;;;30.40;31.00;;;;;;20432;6807;337640;-77
2023/07/01 10:34:52;;;;;;;1.90;1.80;;;30.80;29.60;;;;;;20609;6804;119558;-76
2023/07/01 10:37:31;;;;;;;2.07;1.83;;;30.90;30.00;;;;;;20667;6794;117393;-77
2023/07/01 10:40:08;;;;;;;3.47;2.13;;;30.80;30.40;;;;;;20758;6775;117586;-74
2023/07/01 10:42:44;;;;;;;2.22;2.12;;;30.60;30.30;;;;;;20373;6851;318638;-77
2023/07/01 10:45:26;;;;;;;3.57;2.10;;;30.60;28.30;;;;;;20751;6778;117112;-74
2023/07/01 10:48:13;;;;;;;2.13;1.83;;;29.90;29.50;;;;;;20640;6782;117316;-77
2023/07/01 10:51:07;;;;;;;2.20;2.10;;;29.90;29.50;;;;;;20536;6779;337423;-75
2023/07/01 10:54:03;;;;;;;2.17;2.08;;;29.90;29.10;;;;;;20529;6777;279364;-76
2023/07/01 10:56:38;;;;;;;2.80;2.20;;;30.20;29.30;;;;;;20518;6777;336390;-76
2023/07/01 10:59:21;;;;;;;3.00;2.20;;;30.50;28.90;;;;;;20373;6777;319792;-77
2023/07/01 11:01:56;;;;;;;2.33;2.10;;;30.70;28.90;;;;;;20528;6778;309090;-76
2023/07/01 11:04:54;;;;;;;1.90;1.77;;;30.90;28.30;;;;;;20678;6776;116990;-75
2023/07/01 11:07:28;;;;;;;1.87;1.77;;;30.90;29.00;;;;;;20646;6776;120881;-74
2023/07/01 11:10:04;;;;;;;1.70;1.60;;;30.70;29.70;;;;;;20735;6786;67611;-76
2023/07/01 11:12:39;;;;;;;3.92;2.00;;;30.50;29.90;;;;;;20449;6786;342067;-77
2023/07/01 11:15:15;;;;;;;2.08;1.98;;;30.60;28.70;;;;;;20450;6816;312243;-76
2023/07/01 11:17:50;;;;;;;2.00;1.90;;;30.90;28.70;;;;;;20375;6804;316512;-74
2023/07/01 11:20:26;;;;;;;3.30;2.13;;;31.10;28.60;;;;;;20387;6834;309682;-75
2023/07/01 11:23:01;;;;;;;2.53;2.00;;;31.30;28.70;;;;;;20387;6831;279578;-75
2023/07/01 11:25:40;;;;;;;2.17;1.97;;;31.50;28.00;;;;;;20627;6816;117507;-76
2023/07/01 11:28:16;;;;;;;3.47;1.90;;;31.30;28.40;;;;;;20542;6816;117512;-75
2023/07/01 11:30:51;;;;;;;2.03;1.93;;;30.80;28.10;;;;;;20606;6816;118045;-76
2023/07/01 11:33:27;;;;;;;3.23;2.57;;;30.40;28.50;;;;;;20642;6819;117389;-76
2023/07/01 11:36:03;;;;;;;3.53;2.37;;;30.20;28.70;;;;;;20446;6804;307604;-76
2023/07/01 11:38:38;;;;;;;3.40;2.50;;;30.30;27.60;;;;;;20340;6804;281091;-75
2023/07/01 11:41:18;;;;;;;3.27;2.30;;;30.70;28.00;;;;;;20658;6809;124710;-79
2023/07/01 11:43:54;;;;;;;2.70;2.50;;;30.70;28.20;;;;;;20461;6809;337380;-79
2023/07/01 11:46:29;;;;;;;3.00;2.60;;;30.90;27.50;;;;;;20356;6827;339874;-76
2023/07/01 11:49:18;;;;;;;3.80;2.47;;;31.30;26.80;;;;;;20465;6827;118466;-79
2023/07/01 11:51:57;;;;;;;3.00;2.70;;;31.30;27.60;;;;;;20471;6803;308983;-74
2023/07/01 11:54:38;;;;;;;2.97;2.77;;;31.30;26.80;;;;;;20604;6818;117905;-78
2023/07/01 11:57:14;;;;;;;2.73;2.57;;;31.30;27.60;;;;;;20407;6818;290154;-76
2023/07/01 11:59:52;;;;;;;2.60;2.50;;;31.30;27.00;;;;;;20435;6810;279395;-75
2023/07/01 12:02:25;;;;;;;4.13;2.93;;;31.40;26.00;;;;;;20385;6826;280216;-77
2023/07/01 12:05:03;;;;;;;2.60;2.50;;;31.10;27.10;;;;;;20623;6824;118174;-74
2023/07/01 12:07:38;;;;;;;3.17;2.50;;;31.10;27.10;;;;;;20405;6809;286429;-73
2023/07/01 12:10:16;;;;;;;3.73;2.40;;;30.90;26.70;;;;;;20372;6880;280395;-77
2023/07/01 12:12:51;;;;;;;2.30;2.10;;;30.80;27.10;;;;;;20366;6835;289452;-76
2023/07/01 12:15:28;;;;;;;2.93;2.50;;;30.80;27.20;;;;;;20455;6815;298248;-77
2023/07/01 12:18:19;;;;;;;5.27;2.30;;;30.70;27.10;;;;;;20538;6823;117420;-75
2023/07/01 12:20:55;;;;;;;2.15;1.85;;;30.40;28.00;;;;;;20365;6834;294403;-74
2023/07/01 12:23:40;;;;;;;3.13;2.13;;;30.30;28.10;;;;;;20633;6816;118312;-75
2023/07/01 12:26:06;;;;;;;2.30;2.00;;;30.00;28.80;;;;;;20369;6828;315391;-72
2023/07/01 12:28:42;;;;;;;4.10;2.17;;;30.10;28.30;;;;;;20215;6827;282199;-77
2023/07/01 12:31:18;;;;;;;2.45;2.08;;;30.10;28.30;;;;;;20435;6812;333353;-76
2023/07/01 12:33:53;;;;;;;2.67;2.03;;;30.20;28.30;;;;;;20439;6812;279965;-74
2023/07/01 12:36:33;;;;;;;2.43;2.00;;;30.20;28.50;;;;;;20404;6812;279640;-73
2023/07/01 12:39:07;;;;;;;2.05;1.92;;;30.20;28.30;;;;;;20308;6829;343770;-74
2023/07/01 12:41:41;;;;;;;3.13;1.97;;;30.20;28.60;;;;;;20547;6837;117696;-74
2023/07/01 12:44:17;;;;;;;1.93;1.83;;;29.90;29.50;;;;;;20601;6821;144538;-74
2023/07/01 12:46:52;;;;;;;2.57;1.77;;;29.50;29.90;;;;;;20584;6833;117784;-75
2023/07/01 12:49:28;;;;;;;2.70;1.90;;;29.20;30.10;;;;;;20179;6898;283839;-74
2023/07/01 12:52:04;;;;;;;2.30;1.53;;;29.30;29.60;;;;;;20421;6822;279967;-73
2023/07/01 12:54:39;;;;;;;2.20;1.67;;;29.40;29.80;;;;;;20444;6803;280090;-74
2023/07/01 12:57:15;;;;;;;1.60;1.50;;;29.50;29.50;;;;;;20619;6827;118250;-74
2023/07/01 12:59:54;;;;;;;1.57;1.47;;;29.20;30.10;;;;;;20701;6792;117092;-75
2023/07/01 13:02:26;;;;;;;5.93;1.37;;;28.80;30.70;;;;;;20704;6787;117745;-75
2023/07/01 13:05:01;;;;;;;1.47;1.37;;;28.50;31.20;;;;;;20396;6826;310795;-75
2023/07/01 13:07:37;;;;;;;3.07;1.33;;;28.50;31.00;;;;;;20345;6839;311201;-73
2023/07/01 13:10:14;;;;;;;1.90;1.53;;;28.70;30.80;;;;;;20665;6806;123765;-74
2023/07/01 13:12:50;;;;;;;1.87;1.20;;;28.60;31.30;;;;;;20687;6792;117102;-74
2023/07/01 13:15:28;;;;;;;2.77;1.10;;;28.20;31.70;;;;;;20659;6810;117792;-74
2023/07/01 13:18:03;;;;;;;4.23;1.43;;;27.90;32.10;;;;;;20314;6824;281647;-72
2023/07/01 13:20:39;;;;;;;2.47;1.10;;;28.10;31.70;;;;;;20491;6788;283188;-72
2023/07/01 13:23:17;;;;;;;1.20;1.10;;;28.40;31.10;;;;;;20482;6796;313487;-72
2023/07/01 13:25:54;;;;;;;1.70;1.20;;;28.90;30.80;;;;;;20455;6806;280114;-72